Al-Jouf, Saudi Arabia

8:19 PM AST on August 27, 2016 (GMT +0300)
Al Jouf | | Change Station

Elev 2260 ft 29.79 °N, 40.10 °E | Updated 19 minutes ago

Clear
Clear
102 °F
Feels Like 102 °F
N
4
Wind Variable Wind from East

Today
High -- | Low -- °F
--% Chance of Precip.
Yesterday
High -- | Low -- °F
Precip. -- in
Pressure 29.86 in
Visibility -9999.0 miles
Clouds
Dew Point 28 °F
Humidity 7%
Rainfall 0.00 in
Snow Depth Not available.
5:54 AM 6:47 PM
Waning Crescent, 23% visible
METAR OESK 271700Z 08003KT CAVOK 39/M02 Q1011 NOSIG
Pressure 29.86 in
Visibility -9999.0 miles
Clouds
Dew Point 28 °F
Humidity 7%
Rainfall 0.00 in
Snow Depth Not available.
5:54 AM 6:47 PM
Waning Crescent, 23% visible
METAR OESK 271700Z 08003KT CAVOK 39/M02 Q1011 NOSIG

10-Day Weather Forecast

No radar image for this location.
×

Almanac

Astronomy

Aug. 27, 2016 Rise Set
Actual Time
Civil Twilight
Nautical Twilight
Astronomical Twilight
Moon
Length of Visible Light
Length of Day
Tomorrow will be .
, % of the Moon is Illuminated

Today's Extremes

Country Highs Country Lows

Community

WunderPhotos

Upload Photos

1,935,386 photos uploaded!

WunderBlog® & News

Nearby

Air Quality

  Air Quality AQ Index Pollutant
Not available.

Snow Depth

Station Depth Elevation

Earthquake Activity

City Distance Mag. Time & Date
Minimum magnitude displayed is 2.5.

Coastal Water Temperatures

Place Temperature

Stations

Nearby Weather Stations

Station Location Temp. Windchill Dew Point Humidity Wind Precip. Elev Updated Type